createdAt,value
2018-06-04T00:00:16.690Z,21.67
2018-06-04T00:01:16.550Z,21.66
2018-06-04T00:02:16.493Z,21.67
2018-06-04T00:03:16.550Z,21.66
2018-06-04T00:04:16.648Z,21.66
2018-06-04T00:05:16.479Z,21.64
2018-06-04T00:06:16.568Z,21.64
2018-06-04T00:07:16.781Z,21.67
2018-06-04T00:08:16.732Z,21.64
2018-06-04T00:09:16.673Z,21.64
2018-06-04T00:10:16.485Z,21.64
2018-06-04T00:11:16.581Z,21.66
2018-06-04T00:12:16.546Z,21.63
2018-06-04T00:13:16.461Z,21.64
2018-06-04T00:14:39.743Z,21.64
2018-06-04T00:15:16.675Z,21.64
2018-06-04T00:16:16.466Z,21.61
2018-06-04T00:17:16.645Z,21.61
2018-06-04T00:18:16.716Z,21.63
2018-06-04T00:19:16.614Z,21.64
2018-06-04T00:20:16.617Z,21.63
2018-06-04T00:21:16.695Z,21.63
2018-06-04T00:22:16.776Z,21.61
2018-06-04T00:23:16.700Z,21.63
2018-06-04T00:24:16.620Z,21.63
2018-06-04T00:25:16.707Z,21.61
2018-06-04T00:26:16.752Z,21.63
2018-06-04T00:27:16.462Z,21.61
2018-06-04T00:28:16.508Z,21.63
2018-06-04T00:29:16.567Z,21.63
2018-06-04T00:30:16.840Z,21.61
2018-06-04T00:31:16.640Z,21.61
2018-06-04T00:32:16.979Z,21.59
2018-06-04T00:33:16.529Z,21.6
2018-06-04T00:34:16.604Z,21.63
2018-06-04T00:35:16.430Z,21.61
2018-06-04T00:36:16.490Z,21.63
2018-06-04T00:37:16.703Z,21.63
2018-06-04T00:38:16.765Z,21.61
2018-06-04T00:39:16.459Z,21.61
2018-06-04T00:40:16.415Z,21.64
2018-06-04T00:41:16.404Z,21.64
2018-06-04T00:42:16.600Z,21.61
2018-06-04T00:43:16.763Z,21.6
2018-06-04T00:44:16.594Z,21.61
2018-06-04T00:45:16.735Z,21.61
2018-06-04T00:46:16.473Z,21.61
2018-06-04T00:47:16.492Z,21.63
2018-06-04T00:48:16.544Z,21.61
2018-06-04T00:49:16.535Z,21.61
2018-06-04T00:50:16.476Z,21.61
2018-06-04T00:51:16.591Z,21.6
2018-06-04T00:52:16.361Z,21.6
2018-06-04T00:53:16.626Z,21.61
2018-06-04T00:54:16.789Z,21.61
2018-06-04T00:55:16.603Z,21.63
2018-06-04T00:56:16.490Z,21.6
2018-06-04T00:57:16.483Z,21.64
2018-06-04T00:58:16.544Z,21.61
2018-06-04T00:59:16.497Z,21.59
2018-06-04T01:00:16.531Z,21.61
2018-06-04T01:01:16.697Z,21.6
2018-06-04T01:02:16.849Z,21.61
2018-06-04T01:03:16.564Z,21.6
2018-06-04T01:04:16.792Z,21.6
2018-06-04T01:05:16.489Z,21.6
2018-06-04T01:06:16.387Z,21.6
2018-06-04T01:07:16.563Z,21.6
2018-06-04T01:08:16.649Z,21.61
2018-06-04T01:09:16.590Z,21.61
2018-06-04T01:10:16.803Z,21.6
2018-06-04T01:11:16.428Z,21.59
2018-06-04T01:12:16.494Z,21.59
2018-06-04T01:13:16.601Z,21.6
2018-06-04T01:14:16.577Z,21.6
2018-06-04T01:15:39.443Z,21.59
2018-06-04T01:16:16.612Z,21.59
2018-06-04T01:17:16.493Z,21.59
2018-06-04T01:18:16.593Z,21.59
2018-06-04T01:19:16.782Z,21.59
2018-06-04T01:20:16.642Z,21.59
2018-06-04T01:21:16.530Z,21.59
2018-06-04T01:22:16.605Z,21.57
2018-06-04T01:23:16.522Z,21.57
2018-06-04T01:24:16.766Z,21.57
2018-06-04T01:25:16.669Z,21.57
2018-06-04T01:26:16.336Z,21.59
2018-06-04T01:27:16.461Z,21.6
2018-06-04T01:28:16.616Z,21.57
2018-06-04T01:29:16.468Z,21.57
2018-06-04T01:30:16.580Z,21.6
2018-06-04T01:31:16.865Z,21.6
2018-06-04T01:32:16.465Z,21.57
2018-06-04T01:33:16.516Z,21.57
2018-06-04T01:34:16.660Z,21.56
2018-06-04T01:35:16.360Z,21.56
2018-06-04T01:36:16.396Z,21.56
2018-06-04T01:37:16.809Z,21.57
2018-06-04T01:38:16.583Z,21.57
2018-06-04T01:39:16.585Z,21.59
2018-06-04T01:40:16.558Z,21.54
2018-06-04T01:41:16.529Z,21.56
2018-06-04T01:42:16.516Z,21.56
2018-06-04T01:43:16.544Z,21.57
2018-06-04T01:44:16.465Z,21.56
2018-06-04T01:45:16.472Z,21.56
2018-06-04T01:46:16.580Z,21.54
2018-06-04T01:47:16.457Z,21.54
2018-06-04T01:48:16.577Z,21.56
2018-06-04T01:49:16.496Z,21.56
2018-06-04T01:50:16.511Z,21.53
2018-06-04T01:51:16.720Z,21.54
2018-06-04T01:52:16.522Z,21.56
2018-06-04T01:53:16.414Z,21.56
2018-06-04T01:54:16.636Z,21.54
2018-06-04T01:55:16.507Z,21.54
2018-06-04T01:56:16.452Z,21.53
2018-06-04T01:57:16.575Z,21.54
2018-06-04T01:58:16.591Z,21.54
2018-06-04T01:59:16.574Z,21.54
2018-06-04T02:00:16.638Z,21.56
2018-06-04T02:01:16.492Z,21.54
2018-06-04T02:02:16.803Z,21.54
2018-06-04T02:03:16.470Z,21.54
2018-06-04T02:04:16.557Z,21.54
2018-06-04T02:05:16.778Z,21.56
2018-06-04T02:06:16.331Z,21.51
2018-06-04T02:07:16.623Z,21.54
2018-06-04T02:08:16.515Z,21.53
2018-06-04T02:09:16.536Z,21.54
2018-06-04T02:10:16.534Z,21.54
2018-06-04T02:11:16.424Z,21.54
2018-06-04T02:12:16.604Z,21.53
2018-06-04T02:13:16.565Z,21.53
2018-06-04T02:14:16.354Z,21.51
2018-06-04T02:15:16.403Z,21.53
2018-06-04T02:16:16.676Z,21.53
2018-06-04T02:17:16.539Z,21.56
2018-06-04T02:18:16.425Z,21.54
2018-06-04T02:19:16.595Z,21.53
2018-06-04T02:20:16.536Z,21.53
2018-06-04T02:21:16.462Z,21.51
2018-06-04T02:22:16.571Z,21.5
2018-06-04T02:23:16.579Z,21.53
2018-06-04T02:24:16.404Z,21.51
2018-06-04T02:25:16.466Z,21.54
2018-06-04T02:26:16.581Z,21.53
2018-06-04T02:27:16.776Z,21.54
2018-06-04T02:28:16.517Z,21.51
2018-06-04T02:29:16.668Z,21.53
2018-06-04T02:30:16.637Z,21.51
2018-06-04T02:31:16.440Z,21.51
2018-06-04T02:32:16.541Z,21.53
2018-06-04T02:33:16.581Z,21.53
2018-06-04T02:34:16.586Z,21.54
2018-06-04T02:35:16.401Z,21.5
2018-06-04T02:36:16.628Z,21.5
2018-06-04T02:37:16.442Z,21.51
2018-06-04T02:38:16.484Z,21.51
2018-06-04T02:39:16.486Z,21.5
2018-06-04T02:40:16.515Z,21.51
2018-06-04T02:41:16.747Z,21.53
2018-06-04T02:42:16.609Z,21.51
2018-06-04T02:43:16.543Z,21.53
2018-06-04T02:44:16.560Z,21.51
2018-06-04T02:45:16.845Z,21.53
2018-06-04T02:46:16.431Z,21.51
2018-06-04T02:47:16.529Z,21.51
2018-06-04T02:48:16.608Z,21.51
2018-06-04T02:49:16.647Z,21.5
2018-06-04T02:50:16.603Z,21.5
2018-06-04T02:51:16.625Z,21.49
2018-06-04T02:52:16.612Z,21.49
2018-06-04T02:53:16.784Z,21.5
2018-06-04T02:54:16.567Z,21.5
2018-06-04T02:55:16.423Z,21.51
2018-06-04T02:56:16.547Z,21.51
2018-06-04T02:57:16.460Z,21.49
2018-06-04T02:58:16.797Z,21.49
2018-06-04T02:59:16.533Z,21.5
2018-06-04T03:00:16.564Z,21.5
2018-06-04T03:01:16.394Z,21.5
2018-06-04T03:02:16.353Z,21.49
2018-06-04T03:03:16.684Z,21.49
2018-06-04T03:04:16.461Z,21.5
2018-06-04T03:05:16.442Z,21.49
2018-06-04T03:06:16.482Z,21.5
2018-06-04T03:07:16.634Z,21.49
2018-06-04T03:08:16.543Z,21.49
2018-06-04T03:09:16.551Z,21.5
2018-06-04T03:10:16.501Z,21.5
2018-06-04T03:11:16.532Z,21.49
2018-06-04T03:12:16.398Z,21.49
2018-06-04T03:13:16.516Z,21.5
2018-06-04T03:14:16.479Z,21.49
2018-06-04T03:15:16.364Z,21.47
2018-06-04T03:16:16.611Z,21.49
2018-06-04T03:17:16.494Z,21.49
2018-06-04T03:18:16.453Z,21.49
2018-06-04T03:19:16.793Z,21.5
2018-06-04T03:20:16.516Z,21.49
2018-06-04T03:21:16.783Z,21.47
2018-06-04T03:22:16.611Z,21.49
2018-06-04T03:23:16.660Z,21.49
2018-06-04T03:24:16.419Z,21.47
2018-06-04T03:25:16.672Z,21.47
2018-06-04T03:26:16.446Z,21.47
2018-06-04T03:27:16.517Z,21.46
2018-06-04T03:28:16.549Z,21.47
2018-06-04T03:29:16.680Z,21.5
2018-06-04T03:30:16.596Z,21.51
2018-06-04T03:31:16.530Z,21.49
2018-06-04T03:32:16.434Z,21.49
2018-06-04T03:33:16.682Z,21.47
2018-06-04T03:34:16.465Z,21.47
2018-06-04T03:35:16.422Z,21.47
2018-06-04T03:36:16.737Z,21.49
2018-06-04T03:37:16.343Z,21.47
2018-06-04T03:38:16.612Z,21.5
2018-06-04T03:39:16.551Z,21.49
2018-06-04T03:40:16.450Z,21.5
2018-06-04T03:41:16.607Z,21.49
2018-06-04T03:42:16.593Z,21.47
2018-06-04T03:43:16.345Z,21.49
2018-06-04T03:44:16.441Z,21.47
2018-06-04T03:45:16.592Z,21.49
2018-06-04T03:46:16.506Z,21.47
2018-06-04T03:47:16.545Z,21.46
2018-06-04T03:48:16.573Z,21.47
2018-06-04T03:49:16.485Z,21.47
2018-06-04T03:50:16.518Z,21.46
2018-06-04T03:51:16.618Z,21.44
2018-06-04T03:52:16.592Z,21.49
2018-06-04T03:53:16.333Z,21.46
2018-06-04T03:54:16.494Z,21.47
2018-06-04T03:55:16.391Z,21.49
2018-06-04T03:56:16.435Z,21.46
2018-06-04T03:57:16.723Z,21.47
2018-06-04T03:58:16.520Z,21.46
2018-06-04T03:59:16.454Z,21.47
2018-06-04T04:00:16.537Z,21.47
2018-06-04T04:01:16.518Z,21.47
2018-06-04T04:02:16.420Z,21.47
2018-06-04T04:03:16.549Z,21.47
2018-06-04T04:04:16.616Z,21.49
2018-06-04T04:05:16.435Z,21.47
2018-06-04T04:06:16.642Z,21.46
2018-06-04T04:07:16.577Z,21.46
2018-06-04T04:08:16.804Z,21.43
2018-06-04T04:09:16.581Z,21.43
2018-06-04T04:10:16.396Z,21.44
2018-06-04T04:11:16.465Z,21.46
2018-06-04T04:12:16.625Z,21.46
2018-06-04T04:13:39.381Z,21.47
2018-06-04T04:14:16.591Z,21.46
2018-06-04T04:15:16.430Z,21.44
2018-06-04T04:16:16.539Z,21.44
2018-06-04T04:17:16.473Z,21.44
2018-06-04T04:18:16.470Z,21.44
2018-06-04T04:19:16.787Z,21.43
2018-06-04T04:20:16.507Z,21.46
2018-06-04T04:21:16.465Z,21.44
2018-06-04T04:22:16.624Z,21.46
2018-06-04T04:23:16.679Z,21.43
2018-06-04T04:24:16.519Z,21.46
2018-06-04T04:25:16.464Z,21.46
2018-06-04T04:26:16.549Z,21.44
2018-06-04T04:27:16.360Z,21.46
2018-06-04T04:28:16.489Z,21.43
2018-06-04T04:29:16.629Z,21.44
2018-06-04T04:30:16.481Z,21.44
2018-06-04T04:31:16.601Z,21.44
2018-06-04T04:32:16.430Z,21.44
2018-06-04T04:33:16.482Z,21.47
2018-06-04T04:34:16.573Z,21.44
2018-06-04T04:35:16.472Z,21.44
2018-06-04T04:36:16.458Z,21.44
2018-06-04T04:37:16.560Z,21.46
2018-06-04T04:38:16.625Z,21.47
2018-06-04T04:39:16.602Z,21.43
2018-06-04T04:40:16.630Z,21.43
2018-06-04T04:41:16.390Z,21.44
2018-06-04T04:42:16.575Z,21.46
2018-06-04T04:43:16.395Z,21.44
2018-06-04T04:44:16.462Z,21.46
2018-06-04T04:45:16.706Z,21.46
2018-06-04T04:46:16.592Z,21.44
2018-06-04T04:47:16.597Z,21.44
2018-06-04T04:48:16.587Z,21.44
2018-06-04T04:49:16.349Z,21.46
2018-06-04T04:50:16.643Z,21.44
2018-06-04T04:51:16.505Z,21.44
2018-06-04T04:52:16.432Z,21.44
2018-06-04T04:53:16.477Z,21.44
2018-06-04T04:54:16.404Z,21.47
2018-06-04T04:55:16.648Z,21.46
2018-06-04T04:56:16.566Z,21.44
2018-06-04T04:57:16.493Z,21.46
2018-06-04T04:58:16.577Z,21.46
2018-06-04T04:59:16.552Z,21.46
2018-06-04T05:00:16.632Z,21.44
2018-06-04T05:01:16.536Z,21.47
2018-06-04T05:02:16.477Z,21.44
2018-06-04T05:03:16.481Z,21.46
2018-06-04T05:04:16.509Z,21.44
2018-06-04T05:05:16.581Z,21.47
2018-06-04T05:06:16.472Z,21.44
2018-06-04T05:07:16.547Z,21.44
2018-06-04T05:08:16.376Z,21.44
2018-06-04T05:09:16.355Z,21.46
2018-06-04T05:10:16.512Z,21.44
2018-06-04T05:11:16.658Z,21.46
2018-06-04T05:12:16.851Z,21.46
2018-06-04T05:13:16.383Z,21.46
2018-06-04T05:14:16.460Z,21.47
2018-06-04T05:15:16.429Z,21.44
2018-06-04T05:16:16.468Z,21.43
2018-06-04T05:17:16.380Z,21.46
2018-06-04T05:18:16.380Z,21.46
2018-06-04T05:19:16.559Z,21.46
2018-06-04T05:20:16.484Z,21.47
2018-06-04T05:21:16.378Z,21.46
2018-06-04T05:22:16.481Z,21.43
2018-06-04T05:23:16.418Z,21.44
2018-06-04T05:24:16.597Z,21.47
2018-06-04T05:25:26.427Z,21.44
2018-06-04T05:26:16.594Z,21.47
2018-06-04T05:27:16.562Z,21.43
2018-06-04T05:28:16.366Z,21.46
2018-06-04T05:29:16.481Z,21.44
2018-06-04T05:30:16.484Z,21.46
2018-06-04T05:31:16.591Z,21.44
2018-06-04T05:32:16.532Z,21.43
2018-06-04T05:33:16.389Z,21.44
2018-06-04T05:34:16.465Z,21.43
2018-06-04T05:35:16.501Z,21.44
2018-06-04T05:36:16.366Z,21.43
2018-06-04T05:37:16.385Z,21.47
2018-06-04T05:38:16.635Z,21.44
2018-06-04T05:39:16.440Z,21.44
2018-06-04T05:40:16.643Z,21.44
2018-06-04T05:41:16.323Z,21.42
2018-06-04T05:42:16.678Z,21.43
2018-06-04T05:43:16.444Z,21.46
2018-06-04T05:44:16.583Z,21.43
2018-06-04T05:45:16.470Z,21.43
2018-06-04T05:46:16.538Z,21.44
2018-06-04T05:47:16.540Z,21.44
2018-06-04T05:48:16.360Z,21.44
2018-06-04T05:49:16.344Z,21.44
2018-06-04T05:50:16.334Z,21.44
2018-06-04T05:51:16.605Z,21.46
2018-06-04T05:52:16.609Z,21.44
2018-06-04T05:53:16.565Z,21.44
2018-06-04T05:54:16.436Z,21.44
2018-06-04T05:55:16.523Z,21.44
2018-06-04T05:56:16.962Z,21.43
2018-06-04T05:57:16.467Z,21.42
2018-06-04T05:58:16.498Z,21.44
2018-06-04T05:59:16.610Z,21.44
2018-06-04T06:00:16.499Z,21.39
2018-06-04T06:01:48.742Z,21.43
2018-06-04T06:02:16.553Z,21.42
2018-06-04T06:03:16.483Z,21.42
2018-06-04T06:04:16.400Z,21.44
2018-06-04T06:05:16.389Z,21.42
2018-06-04T06:06:16.374Z,21.42
2018-06-04T06:07:16.623Z,21.43
2018-06-04T06:08:16.354Z,21.46
2018-06-04T06:09:17.119Z,21.43
2018-06-04T06:10:16.454Z,21.43
2018-06-04T06:11:16.538Z,21.43
2018-06-04T06:12:16.432Z,21.44
2018-06-04T06:13:16.558Z,21.44
2018-06-04T06:14:16.930Z,21.42
2018-06-04T06:15:16.523Z,21.43
2018-06-04T06:16:16.347Z,21.42
2018-06-04T06:17:16.498Z,21.42
2018-06-04T06:18:47.971Z,21.42
2018-06-04T06:19:16.520Z,21.43
2018-06-04T06:20:16.439Z,21.42
2018-06-04T06:21:16.499Z,21.44
2018-06-04T06:22:16.517Z,21.43
2018-06-04T06:23:16.342Z,21.42
2018-06-04T06:24:16.529Z,21.42
2018-06-04T06:25:16.551Z,21.43
2018-06-04T06:26:16.470Z,21.43
2018-06-04T06:27:16.549Z,21.43
2018-06-04T06:28:16.401Z,21.42
2018-06-04T06:29:16.349Z,21.4
2018-06-04T06:30:16.479Z,21.43
2018-06-04T06:31:16.421Z,21.43
2018-06-04T06:32:16.601Z,21.4
2018-06-04T06:33:16.517Z,21.42
2018-06-04T06:34:16.287Z,21.46
2018-06-04T06:35:16.358Z,21.42
2018-06-04T06:36:16.538Z,21.42
2018-06-04T06:37:16.329Z,21.43
2018-06-04T06:38:16.551Z,21.43
2018-06-04T06:39:16.482Z,21.43
2018-06-04T06:40:16.493Z,21.43
2018-06-04T06:41:16.364Z,21.42
2018-06-04T06:42:16.556Z,21.39
2018-06-04T06:43:16.559Z,21.43
2018-06-04T06:44:16.584Z,21.42
2018-06-04T06:45:16.491Z,21.42
2018-06-04T06:46:16.288Z,21.4
2018-06-04T06:47:16.413Z,21.39
2018-06-04T06:48:16.356Z,21.42
2018-06-04T06:49:16.460Z,21.42
2018-06-04T06:50:16.572Z,21.43
2018-06-04T06:51:16.502Z,21.43
2018-06-04T06:52:17.758Z,21.42
2018-06-04T06:53:16.565Z,21.42
2018-06-04T06:54:16.653Z,21.42
2018-06-04T06:55:16.441Z,21.43
2018-06-04T06:56:16.477Z,21.42
2018-06-04T06:57:16.368Z,21.44
2018-06-04T06:58:16.349Z,21.4
2018-06-04T06:59:16.579Z,21.44
2018-06-04T07:00:16.401Z,21.44
2018-06-04T07:01:16.450Z,21.46
2018-06-04T07:02:16.733Z,21.47
2018-06-04T07:03:16.661Z,21.47
2018-06-04T07:04:16.539Z,21.47
2018-06-04T07:05:16.326Z,21.49
2018-06-04T07:06:16.651Z,21.49
2018-06-04T07:07:16.428Z,21.49
2018-06-04T07:08:16.302Z,21.5
2018-06-04T07:09:16.468Z,21.51
2018-06-04T07:10:16.359Z,21.53
2018-06-04T07:11:16.415Z,21.53
2018-06-04T07:12:16.745Z,21.51
2018-06-04T07:13:16.456Z,21.5
2018-06-04T07:14:16.726Z,21.5
2018-06-04T07:15:16.321Z,21.56
2018-06-04T07:16:16.740Z,21.56
2018-06-04T07:17:16.499Z,21.53
2018-06-04T07:18:16.322Z,21.54
2018-06-04T07:19:16.347Z,21.56
2018-06-04T07:20:16.548Z,21.57
2018-06-04T07:21:16.753Z,21.57
2018-06-04T07:22:16.484Z,21.59
2018-06-04T07:23:16.513Z,21.57
2018-06-04T07:24:16.510Z,21.54
2018-06-04T07:25:16.506Z,21.54
2018-06-04T07:26:16.545Z,21.53
2018-06-04T07:27:16.460Z,21.53
2018-06-04T07:28:16.321Z,21.54
2018-06-04T07:29:16.585Z,21.54
2018-06-04T07:30:16.591Z,21.51
2018-06-04T07:31:16.426Z,21.49
2018-06-04T07:32:16.506Z,21.53
2018-06-04T07:33:16.774Z,21.53
2018-06-04T07:34:16.580Z,21.5
2018-06-04T07:35:16.424Z,21.5
2018-06-04T07:36:16.430Z,21.47
2018-06-04T07:37:16.618Z,21.47
2018-06-04T07:38:16.513Z,21.47
2018-06-04T07:39:16.343Z,21.44
2018-06-04T07:40:16.400Z,21.46
2018-06-04T07:41:16.747Z,21.47
2018-06-04T07:42:16.541Z,21.46
2018-06-04T07:43:16.341Z,21.44
2018-06-04T07:44:16.456Z,21.44
2018-06-04T07:45:16.517Z,21.44
2018-06-04T07:46:16.480Z,21.42
2018-06-04T07:47:16.450Z,21.44
2018-06-04T07:48:16.553Z,21.44
2018-06-04T07:49:16.549Z,21.47
2018-06-04T07:50:16.333Z,21.47
2018-06-04T07:51:16.529Z,21.46
2018-06-04T07:52:16.454Z,21.46
2018-06-04T07:53:16.517Z,21.44
2018-06-04T07:54:16.279Z,21.46
2018-06-04T07:55:16.540Z,21.46
2018-06-04T07:56:16.490Z,21.44
2018-06-04T07:57:16.931Z,21.46
2018-06-04T07:58:16.419Z,21.46
2018-06-04T07:59:16.534Z,21.44
2018-06-04T08:00:16.517Z,21.44
2018-06-04T08:01:26.380Z,21.46
2018-06-04T08:02:16.460Z,21.47
2018-06-04T08:03:16.408Z,21.46
2018-06-04T08:04:16.763Z,21.43
2018-06-04T08:05:16.728Z,21.44
2018-06-04T08:06:16.745Z,21.46
2018-06-04T08:07:16.381Z,21.46
2018-06-04T08:08:16.433Z,21.44
2018-06-04T08:09:16.609Z,21.43
2018-06-04T08:10:16.915Z,21.46
2018-06-04T08:11:16.363Z,21.47
2018-06-04T08:12:16.444Z,21.43
2018-06-04T08:13:16.521Z,21.44
2018-06-04T08:14:16.351Z,21.43
2018-06-04T08:15:16.683Z,21.44
2018-06-04T08:16:16.323Z,21.47
2018-06-04T08:17:16.284Z,21.44
2018-06-04T08:18:16.449Z,21.44
2018-06-04T08:19:16.552Z,21.44
2018-06-04T08:20:16.649Z,21.44
2018-06-04T08:21:16.488Z,21.44
2018-06-04T08:22:16.376Z,21.44
2018-06-04T08:23:16.489Z,21.43
2018-06-04T08:24:16.372Z,21.44
2018-06-04T08:25:16.400Z,21.43
2018-06-04T08:26:16.350Z,21.44
2018-06-04T08:27:16.373Z,21.43
2018-06-04T08:28:16.375Z,21.42
2018-06-04T08:29:16.733Z,21.44
2018-06-04T08:30:16.409Z,21.43
2018-06-04T08:31:16.448Z,21.44
2018-06-04T08:32:16.523Z,21.43
2018-06-04T08:33:16.567Z,21.44
2018-06-04T08:34:16.627Z,21.44
2018-06-04T08:35:16.367Z,21.43
2018-06-04T08:36:16.439Z,21.44
2018-06-04T08:37:16.539Z,21.43
2018-06-04T08:38:16.798Z,21.42
2018-06-04T08:39:16.368Z,21.43
2018-06-04T08:40:16.687Z,21.42
2018-06-04T08:41:16.422Z,21.42
2018-06-04T08:42:16.459Z,21.43
2018-06-04T08:43:16.460Z,21.42
2018-06-04T08:44:16.528Z,21.43
2018-06-04T08:45:16.415Z,21.43
2018-06-04T08:46:16.773Z,21.44
2018-06-04T08:47:16.468Z,21.4
2018-06-04T08:48:16.379Z,21.42
2018-06-04T08:49:16.538Z,21.42
2018-06-04T08:50:16.497Z,21.43
2018-06-04T08:51:16.411Z,21.44
2018-06-04T08:52:16.314Z,21.42
2018-06-04T08:53:16.519Z,21.42
2018-06-04T08:54:16.381Z,21.43
2018-06-04T08:55:16.505Z,21.44
2018-06-04T08:56:16.756Z,21.42
2018-06-04T08:57:16.348Z,21.43
2018-06-04T08:58:16.634Z,21.43
2018-06-04T08:59:16.325Z,21.4
2018-06-04T09:00:16.456Z,21.42
2018-06-04T09:01:16.439Z,21.43
2018-06-04T09:02:16.500Z,21.42
2018-06-04T09:03:16.333Z,21.43
2018-06-04T09:04:16.346Z,21.39
2018-06-04T09:05:16.353Z,21.43
2018-06-04T09:06:16.442Z,21.42
2018-06-04T09:07:16.313Z,21.4
2018-06-04T09:08:16.394Z,21.42
2018-06-04T09:09:16.358Z,21.43
2018-06-04T09:10:16.403Z,21.42
2018-06-04T09:11:16.429Z,21.42
2018-06-04T09:12:16.471Z,21.43
2018-06-04T09:13:16.480Z,21.42
2018-06-04T09:14:16.364Z,21.43
2018-06-04T09:15:16.486Z,21.43
2018-06-04T09:16:16.477Z,21.42
2018-06-04T09:17:16.611Z,21.43
2018-06-04T09:18:16.600Z,21.42
2018-06-04T09:19:16.291Z,21.4
2018-06-04T09:20:16.432Z,21.4
2018-06-04T09:21:16.515Z,21.42
2018-06-04T09:22:16.479Z,21.43
2018-06-04T09:23:16.308Z,21.4
2018-06-04T09:24:16.535Z,21.4
2018-06-04T09:25:16.436Z,21.42
2018-06-04T09:26:16.547Z,21.43
2018-06-04T09:27:16.483Z,21.42
2018-06-04T09:28:16.497Z,21.4
2018-06-04T09:29:16.483Z,21.42
2018-06-04T09:30:16.265Z,21.42
2018-06-04T09:31:16.514Z,21.4
2018-06-04T09:32:16.863Z,21.39
2018-06-04T09:33:16.505Z,21.42
2018-06-04T09:34:16.451Z,21.4
2018-06-04T09:35:16.605Z,21.42
2018-06-04T09:36:16.486Z,21.4
2018-06-04T09:37:16.479Z,21.42
2018-06-04T09:38:16.486Z,21.42
2018-06-04T09:39:16.479Z,21.42
2018-06-04T09:40:16.378Z,21.43
2018-06-04T09:41:16.299Z,21.39
2018-06-04T09:42:16.453Z,21.42
2018-06-04T09:43:34.715Z,21.42
2018-06-04T09:44:16.444Z,21.4
2018-06-04T09:45:16.566Z,21.42
2018-06-04T09:46:16.482Z,21.42
2018-06-04T09:47:16.412Z,21.42
2018-06-04T09:48:16.303Z,21.39
2018-06-04T09:49:16.416Z,21.42
2018-06-04T09:50:16.411Z,21.43
2018-06-04T09:51:16.500Z,21.43
2018-06-04T09:52:16.539Z,21.4
2018-06-04T09:53:16.428Z,21.4
2018-06-04T09:54:16.407Z,21.4
2018-06-04T09:55:16.437Z,21.4
2018-06-04T09:56:16.496Z,21.39
2018-06-04T09:57:16.371Z,21.42
2018-06-04T09:58:16.643Z,21.4
2018-06-04T09:59:16.412Z,21.42
2018-06-04T10:00:16.587Z,21.42
2018-06-04T10:01:16.416Z,21.4
2018-06-04T10:02:16.539Z,21.42
2018-06-04T10:03:16.537Z,21.42
2018-06-04T10:04:16.540Z,21.42
2018-06-04T10:05:16.532Z,21.4
2018-06-04T10:06:16.519Z,21.42
2018-06-04T10:07:16.527Z,21.42
2018-06-04T10:08:16.295Z,21.39
2018-06-04T10:09:16.443Z,21.39
2018-06-04T10:10:16.435Z,21.4
2018-06-04T10:11:16.520Z,21.39
2018-06-04T10:12:16.481Z,21.4
2018-06-04T10:13:16.488Z,21.42
2018-06-04T10:14:16.663Z,21.42
2018-06-04T10:15:16.515Z,21.42
2018-06-04T10:16:16.383Z,21.42
2018-06-04T10:17:39.724Z,21.39
2018-06-04T10:18:16.373Z,21.42
2018-06-04T10:19:16.513Z,21.42
2018-06-04T10:20:16.591Z,21.42
2018-06-04T10:21:16.438Z,21.42
2018-06-04T10:22:16.478Z,21.39
2018-06-04T10:23:16.491Z,21.4
2018-06-04T10:24:16.303Z,21.4
2018-06-04T10:25:16.517Z,21.39
2018-06-04T10:26:16.368Z,21.4
2018-06-04T10:27:16.334Z,21.4
2018-06-04T10:28:16.348Z,21.39
2018-06-04T10:29:16.565Z,21.39
2018-06-04T10:30:16.384Z,21.4
2018-06-04T10:31:16.597Z,21.39
2018-06-04T10:32:16.503Z,21.39
2018-06-04T10:33:16.356Z,21.4
2018-06-04T10:34:16.628Z,21.4
2018-06-04T10:35:16.498Z,21.39
2018-06-04T10:36:16.535Z,21.36
2018-06-04T10:37:16.481Z,21.39
2018-06-04T10:38:16.368Z,21.37
2018-06-04T10:39:16.466Z,21.4
2018-06-04T10:40:16.266Z,21.4
2018-06-04T10:41:16.423Z,21.39
2018-06-04T10:42:16.495Z,21.4
2018-06-04T10:43:16.463Z,21.4
2018-06-04T10:44:16.372Z,21.39
2018-06-04T10:45:16.445Z,21.39
2018-06-04T10:46:16.556Z,21.39
2018-06-04T10:47:16.389Z,21.39
2018-06-04T10:48:16.352Z,21.4
2018-06-04T10:49:16.341Z,21.37
2018-06-04T10:50:16.495Z,21.39
2018-06-04T10:51:16.349Z,21.39
2018-06-04T10:52:16.383Z,21.39
2018-06-04T10:53:16.372Z,21.39
2018-06-04T10:54:16.504Z,21.39
2018-06-04T10:55:16.603Z,21.39
2018-06-04T10:56:16.467Z,21.37
2018-06-04T10:57:16.406Z,21.4
2018-06-04T10:58:16.314Z,21.42
2018-06-04T10:59:16.546Z,21.39
2018-06-04T11:00:16.411Z,21.37
2018-06-04T11:01:16.490Z,21.39
2018-06-04T11:02:16.549Z,21.39
2018-06-04T11:03:16.420Z,21.37
2018-06-04T11:04:16.500Z,21.39
2018-06-04T11:05:16.628Z,21.37
2018-06-04T11:06:16.619Z,21.37
2018-06-04T11:07:16.483Z,21.39
2018-06-04T11:08:16.341Z,21.4
2018-06-04T11:09:16.252Z,21.37
2018-06-04T11:10:16.509Z,21.39
2018-06-04T11:11:16.446Z,21.37
2018-06-04T11:12:16.322Z,21.39
2018-06-04T11:13:16.345Z,21.39
2018-06-04T11:14:16.453Z,21.37
2018-06-04T11:15:16.327Z,21.37
2018-06-04T11:16:16.589Z,21.39
2018-06-04T11:17:16.403Z,21.37
2018-06-04T11:18:16.425Z,21.4
2018-06-04T11:19:16.321Z,21.37
2018-06-04T11:20:16.340Z,21.36
2018-06-04T11:21:16.369Z,21.37
2018-06-04T11:22:16.479Z,21.37
2018-06-04T11:23:16.297Z,21.39
2018-06-04T11:24:16.386Z,21.36
2018-06-04T11:25:16.340Z,21.39
2018-06-04T11:26:16.498Z,21.36
2018-06-04T11:27:16.564Z,21.39
2018-06-04T11:28:16.387Z,21.39
2018-06-04T11:29:16.300Z,21.39
2018-06-04T11:30:16.578Z,21.4
2018-06-04T11:31:16.450Z,21.39
2018-06-04T11:32:16.405Z,21.37
2018-06-04T11:33:16.477Z,21.39
2018-06-04T11:34:16.482Z,21.37
2018-06-04T11:35:16.464Z,21.4
2018-06-04T11:36:16.502Z,21.37
2018-06-04T11:37:16.501Z,21.37
2018-06-04T11:38:16.273Z,21.37
2018-06-04T11:39:16.310Z,21.36
2018-06-04T11:40:16.375Z,21.39
2018-06-04T11:41:16.409Z,21.37
2018-06-04T11:42:16.571Z,21.37
2018-06-04T11:43:16.247Z,21.37
2018-06-04T11:44:16.724Z,21.36
2018-06-04T11:45:16.680Z,21.34
2018-06-04T11:46:16.432Z,21.37
2018-06-04T11:47:16.262Z,21.37
2018-06-04T11:48:16.403Z,21.39
2018-06-04T11:49:16.393Z,21.37
2018-06-04T11:50:16.471Z,21.39
2018-06-04T11:51:16.527Z,21.4
2018-06-04T11:52:16.512Z,21.39
2018-06-04T11:53:16.277Z,21.39
2018-06-04T11:54:16.318Z,21.37
2018-06-04T11:55:16.315Z,21.37
2018-06-04T11:56:16.534Z,21.36
2018-06-04T11:57:16.375Z,21.37
2018-06-04T11:58:16.393Z,21.37
2018-06-04T11:59:16.589Z,21.36
2018-06-04T12:00:16.334Z,21.36
2018-06-04T12:01:16.339Z,21.36
2018-06-04T12:02:16.396Z,21.36
2018-06-04T12:03:16.397Z,21.36
2018-06-04T12:04:16.387Z,21.39
2018-06-04T12:05:16.492Z,21.37
2018-06-04T12:06:16.268Z,21.36
2018-06-04T12:07:16.519Z,21.37
2018-06-04T12:08:16.521Z,21.36
2018-06-04T12:09:16.274Z,21.37
2018-06-04T12:10:16.402Z,21.39
2018-06-04T12:11:16.524Z,21.39
2018-06-04T12:12:16.526Z,21.37
2018-06-04T12:13:16.708Z,21.36
2018-06-04T12:14:16.524Z,21.37
2018-06-04T12:15:16.445Z,21.37
2018-06-04T12:16:16.385Z,21.34
2018-06-04T12:17:16.332Z,21.37
2018-06-04T12:18:16.347Z,21.37
2018-06-04T12:19:16.453Z,21.34
2018-06-04T12:20:16.316Z,21.37
2018-06-04T12:21:16.511Z,21.36
2018-06-04T12:22:16.285Z,21.34
2018-06-04T12:23:16.498Z,21.39
2018-06-04T12:24:16.392Z,21.37
2018-06-04T12:25:16.340Z,21.37
2018-06-04T12:26:16.395Z,21.37
2018-06-04T12:27:16.406Z,21.37
2018-06-04T12:28:16.811Z,21.37
2018-06-04T12:29:16.278Z,21.37
2018-06-04T12:30:16.447Z,21.37
2018-06-04T12:31:16.378Z,21.36
2018-06-04T12:32:16.438Z,21.39
2018-06-04T12:33:16.443Z,21.4
2018-06-04T12:34:16.463Z,21.4
2018-06-04T12:35:16.600Z,21.42
2018-06-04T12:36:16.233Z,21.43
2018-06-04T12:37:16.400Z,21.4
2018-06-04T12:38:16.417Z,21.4
2018-06-04T12:39:16.393Z,21.4
2018-06-04T12:40:16.243Z,21.37
2018-06-04T12:41:16.366Z,21.42
2018-06-04T12:42:16.385Z,21.4
2018-06-04T12:43:16.444Z,21.43
2018-06-04T12:44:16.499Z,21.46
2018-06-04T12:45:16.489Z,21.49
2018-06-04T12:46:16.432Z,21.47
2018-06-04T12:47:16.440Z,21.47
2018-06-04T12:48:16.505Z,21.46
2018-06-04T12:49:16.669Z,21.46
2018-06-04T12:50:16.299Z,21.44
2018-06-04T12:51:39.880Z,21.44
2018-06-04T12:52:16.406Z,21.43
2018-06-04T12:53:16.492Z,21.44
2018-06-04T12:54:16.477Z,21.47
2018-06-04T12:55:16.355Z,21.46